sensor_id;sensor_type;location;lat;lon;timestamp;temperature;humidity
44121;DHT22;29783;52.504;13.478;2023-05-10T01:44:07;9.50;70.80
44121;DHT22;29783;52.504;13.478;2023-05-10T01:46:37;9.40;71.10
44121;DHT22;29783;52.504;13.478;2023-05-10T01:49:08;9.40;71.30
44121;DHT22;29783;52.504;13.478;2023-05-10T01:51:50;9.50;71.10
44121;DHT22;29783;52.504;13.478;2023-05-10T01:54:19;9.50;71.10
44121;DHT22;29783;52.504;13.478;2023-05-10T01:56:50;9.50;71.40
44121;DHT22;29783;52.504;13.478;2023-05-10T01:59:19;9.40;71.20
44121;DHT22;29783;52.504;13.478;2023-05-10T02:01:46;9.30;71.70
44121;DHT22;29783;52.504;13.478;2023-05-10T02:04:16;9.30;71.80
44121;DHT22;29783;52.504;13.478;2023-05-10T02:06:43;9.30;71.80
44121;DHT22;29783;52.504;13.478;2023-05-10T02:09:11;9.30;71.60
44121;DHT22;29783;52.504;13.478;2023-05-10T02:11:39;9.30;71.80
44121;DHT22;29783;52.504;13.478;2023-05-10T02:14:09;9.30;71.70
44121;DHT22;29783;52.504;13.478;2023-05-10T02:16:36;9.30;71.90
44121;DHT22;29783;52.504;13.478;2023-05-10T02:19:03;9.30;72.20
44121;DHT22;29783;52.504;13.478;2023-05-10T02:21:30;9.30;71.80
44121;DHT22;29783;52.504;13.478;2023-05-10T02:23:57;9.30;71.80
44121;DHT22;29783;52.504;13.478;2023-05-10T02:26:24;9.20;72.00
44121;DHT22;29783;52.504;13.478;2023-05-10T02:28:51;9.20;72.30
44121;DHT22;29783;52.504;13.478;2023-05-10T02:31:19;9.10;72.90
44121;DHT22;29783;52.504;13.478;2023-05-10T02:33:46;9.00;73.00
44121;DHT22;29783;52.504;13.478;2023-05-10T02:36:12;9.20;72.40
44121;DHT22;29783;52.504;13.478;2023-05-10T02:38:39;9.10;72.60
44121;DHT22;29783;52.504;13.478;2023-05-10T02:41:05;9.10;72.50
44121;DHT22;29783;52.504;13.478;2023-05-10T02:43:33;9.00;72.70
44121;DHT22;29783;52.504;13.478;2023-05-10T02:45:59;9.00;72.90
44121;DHT22;29783;52.504;13.478;2023-05-10T02:48:25;9.00;72.90
44121;DHT22;29783;52.504;13.478;2023-05-10T02:50:52;9.00;73.10
44121;DHT22;29783;52.504;13.478;2023-05-10T02:53:22;8.90;73.20
44121;DHT22;29783;52.504;13.478;2023-05-10T02:55:51;8.90;73.40
44121;DHT22;29783;52.504;13.478;2023-05-10T02:58:17;8.90;73.20
44121;DHT22;29783;52.504;13.478;2023-05-10T03:00:44;8.80;73.20
44121;DHT22;29783;52.504;13.478;2023-05-10T03:03:11;8.80;73.70
44121;DHT22;29783;52.504;13.478;2023-05-10T03:05:37;8.70;74.00
44121;DHT22;29783;52.504;13.478;2023-05-10T03:08:03;8.70;74.10
44121;DHT22;29783;52.504;13.478;2023-05-10T03:10:30;8.80;73.70
44121;DHT22;29783;52.504;13.478;2023-05-10T03:13:07;8.80;73.40
44121;DHT22;29783;52.504;13.478;2023-05-10T03:16:07;8.70;73.50
44121;DHT22;29783;52.504;13.478;2023-05-10T03:18:48;8.80;73.40
44121;DHT22;29783;52.504;13.478;2023-05-10T03:21:17;8.80;73.50
44121;DHT22;29783;52.504;13.478;2023-05-10T03:23:51;8.70;73.80
44121;DHT22;29783;52.504;13.478;2023-05-10T03:26:20;8.60;74.10
44121;DHT22;29783;52.504;13.478;2023-05-10T03:28:49;8.70;73.90
44121;DHT22;29783;52.504;13.478;2023-05-10T03:31:17;8.70;74.10
44121;DHT22;29783;52.504;13.478;2023-05-10T03:33:50;8.80;73.30
44121;DHT22;29783;52.504;13.478;2023-05-10T03:36:16;8.80;73.40
44121;DHT22;29783;52.504;13.478;2023-05-10T03:38:41;8.70;73.70
44121;DHT22;29783;52.504;13.478;2023-05-10T03:41:07;8.70;73.50
44121;DHT22;29783;52.504;13.478;2023-05-10T03:43:33;8.80;73.60
44121;DHT22;29783;52.504;13.478;2023-05-10T03:45:58;8.70;73.60
44121;DHT22;29783;52.504;13.478;2023-05-10T03:48:26;8.80;73.40
44121;DHT22;29783;52.504;13.478;2023-05-10T03:50:52;8.70;73.50
44121;DHT22;29783;52.504;13.478;2023-05-10T03:53:17;8.80;73.40
44121;DHT22;29783;52.504;13.478;2023-05-10T03:55:43;8.80;73.50
44121;DHT22;29783;52.504;13.478;2023-05-10T03:58:11;8.80;73.40
44121;DHT22;29783;52.504;13.478;2023-05-10T04:00:37;8.80;73.20
44121;DHT22;29783;52.504;13.478;2023-05-10T04:03:02;8.80;72.70
44121;DHT22;29783;52.504;13.478;2023-05-10T04:05:28;8.90;73.00
44121;DHT22;29783;52.504;13.478;2023-05-10T04:07:54;9.00;72.60
44121;DHT22;29783;52.504;13.478;2023-05-10T04:10:20;9.00;72.40
44121;DHT22;29783;52.504;13.478;2023-05-10T04:12:46;9.00;72.20
44121;DHT22;29783;52.504;13.478;2023-05-10T04:15:12;9.00;72.40
44121;DHT22;29783;52.504;13.478;2023-05-10T04:17:37;9.10;72.20
44121;DHT22;29783;52.504;13.478;2023-05-10T04:20:03;9.20;71.70
44121;DHT22;29783;52.504;13.478;2023-05-10T04:22:29;9.30;71.10
44121;DHT22;29783;52.504;13.478;2023-05-10T04:24:55;9.40;70.50
44121;DHT22;29783;52.504;13.478;2023-05-10T04:27:21;9.50;70.60
44121;DHT22;29783;52.504;13.478;2023-05-10T04:29:46;9.50;70.50
44121;DHT22;29783;52.504;13.478;2023-05-10T04:32:12;9.50;69.90
44121;DHT22;29783;52.504;13.478;2023-05-10T04:34:38;9.70;69.40
44121;DHT22;29783;52.504;13.478;2023-05-10T04:37:03;9.80;69.50
44121;DHT22;29783;52.504;13.478;2023-05-10T04:39:29;9.80;68.90
44121;DHT22;29783;52.504;13.478;2023-05-10T04:41:55;10.00;68.80
44121;DHT22;29783;52.504;13.478;2023-05-10T04:44:20;10.10;68.10
44121;DHT22;29783;52.504;13.478;2023-05-10T04:46:46;10.10;68.30
44121;DHT22;29783;52.504;13.478;2023-05-10T04:49:11;10.20;67.60
44121;DHT22;29783;52.504;13.478;2023-05-10T04:51:37;10.30;67.10
44121;DHT22;29783;52.504;13.478;2023-05-10T04:54:03;10.50;67.20
44121;DHT22;29783;52.504;13.478;2023-05-10T04:56:28;10.50;67.10
44121;DHT22;29783;52.504;13.478;2023-05-10T04:58:54;10.50;67.00
44121;DHT22;29783;52.504;13.478;2023-05-10T05:01:19;10.70;66.30
44121;DHT22;29783;52.504;13.478;2023-05-10T05:03:45;10.70;66.70
44121;DHT22;29783;52.504;13.478;2023-05-10T05:06:11;10.70;66.30
44121;DHT22;29783;52.504;13.478;2023-05-10T05:08:36;10.80;65.80
44121;DHT22;29783;52.504;13.478;2023-05-10T05:11:02;10.90;65.70
44121;DHT22;29783;52.504;13.478;2023-05-10T05:13:27;11.00;65.60
44121;DHT22;29783;52.504;13.478;2023-05-10T05:15:53;11.10;64.90
44121;DHT22;29783;52.504;13.478;2023-05-10T05:18:19;11.20;64.70
44121;DHT22;29783;52.504;13.478;2023-05-10T05:20:45;11.40;64.10
44121;DHT22;29783;52.504;13.478;2023-05-10T05:23:11;11.40;63.60
44121;DHT22;29783;52.504;13.478;2023-05-10T05:25:36;11.50;63.50
44121;DHT22;29783;52.504;13.478;2023-05-10T05:28:02;11.60;63.20
44121;DHT22;29783;52.504;13.478;2023-05-10T05:30:27;11.70;62.80
44121;DHT22;29783;52.504;13.478;2023-05-10T05:32:53;11.80;62.50
44121;DHT22;29783;52.504;13.478;2023-05-10T05:35:19;11.90;62.30
44121;DHT22;29783;52.504;13.478;2023-05-10T05:37:44;12.00;62.10
44121;DHT22;29783;52.504;13.478;2023-05-10T05:40:12;12.00;62.40
44121;DHT22;29783;52.504;13.478;2023-05-10T05:42:38;12.10;62.00
44121;DHT22;29783;52.504;13.478;2023-05-10T05:45:04;12.20;62.00
44121;DHT22;29783;52.504;13.478;2023-05-10T05:47:30;12.30;61.30
44121;DHT22;29783;52.504;13.478;2023-05-10T05:49:56;12.40;61.90
44121;DHT22;29783;52.504;13.478;2023-05-10T05:52:22;12.50;60.80
44121;DHT22;29783;52.504;13.478;2023-05-10T05:54:47;12.60;60.90
44121;DHT22;29783;52.504;13.478;2023-05-10T05:57:13;12.70;61.00
44121;DHT22;29783;52.504;13.478;2023-05-10T05:59:38;12.70;60.00
44121;DHT22;29783;52.504;13.478;2023-05-10T06:02:09;12.90;59.50
44121;DHT22;29783;52.504;13.478;2023-05-10T06:04:35;13.00;59.80
44121;DHT22;29783;52.504;13.478;2023-05-10T06:07:00;13.20;58.90
44121;DHT22;29783;52.504;13.478;2023-05-10T06:09:26;13.30;58.40
44121;DHT22;29783;52.504;13.478;2023-05-10T06:11:52;13.40;58.30
44121;DHT22;29783;52.504;13.478;2023-05-10T06:14:17;13.60;57.60
44121;DHT22;29783;52.504;13.478;2023-05-10T06:16:45;13.70;57.30
44121;DHT22;29783;52.504;13.478;2023-05-10T06:19:11;13.80;56.80
44121;DHT22;29783;52.504;13.478;2023-05-10T06:21:38;13.90;56.60
44121;DHT22;29783;52.504;13.478;2023-05-10T06:24:04;14.10;55.80
44121;DHT22;29783;52.504;13.478;2023-05-10T06:26:35;14.00;55.80
44121;DHT22;29783;52.504;13.478;2023-05-10T06:29:01;14.10;56.30
44121;DHT22;29783;52.504;13.478;2023-05-10T06:31:26;14.20;55.40
44121;DHT22;29783;52.504;13.478;2023-05-10T06:33:52;14.20;55.40
44121;DHT22;29783;52.504;13.478;2023-05-10T06:36:18;14.30;55.70
44121;DHT22;29783;52.504;13.478;2023-05-10T06:38:44;14.30;55.30
44121;DHT22;29783;52.504;13.478;2023-05-10T06:41:09;14.30;55.20
44121;DHT22;29783;52.504;13.478;2023-05-10T06:43:35;14.40;55.90
44121;DHT22;29783;52.504;13.478;2023-05-10T06:46:00;14.60;55.70
44121;DHT22;29783;52.504;13.478;2023-05-10T06:48:26;14.70;55.50
44121;DHT22;29783;52.504;13.478;2023-05-10T06:50:52;14.70;54.60
44121;DHT22;29783;52.504;13.478;2023-05-10T06:53:17;14.80;54.60
44121;DHT22;29783;52.504;13.478;2023-05-10T06:55:43;14.70;54.10
44121;DHT22;29783;52.504;13.478;2023-05-10T06:58:08;14.80;54.60
44121;DHT22;29783;52.504;13.478;2023-05-10T07:00:34;14.90;54.40
44121;DHT22;29783;52.504;13.478;2023-05-10T07:03:00;15.00;54.00
44121;DHT22;29783;52.504;13.478;2023-05-10T07:05:25;15.10;54.10
44121;DHT22;29783;52.504;13.478;2023-05-10T07:07:53;15.20;54.00
44121;DHT22;29783;52.504;13.478;2023-05-10T07:10:18;15.20;53.30
44121;DHT22;29783;52.504;13.478;2023-05-10T07:12:44;15.20;53.80
44121;DHT22;29783;52.504;13.478;2023-05-10T07:15:10;15.30;53.20
44121;DHT22;29783;52.504;13.478;2023-05-10T07:17:35;15.40;53.40
44121;DHT22;29783;52.504;13.478;2023-05-10T07:20:01;15.50;52.60
44121;DHT22;29783;52.504;13.478;2023-05-10T07:22:27;15.60;53.00
44121;DHT22;29783;52.504;13.478;2023-05-10T07:24:52;15.70;52.60
44121;DHT22;29783;52.504;13.478;2023-05-10T07:27:18;15.80;52.70
44121;DHT22;29783;52.504;13.478;2023-05-10T07:29:43;16.00;52.30
44121;DHT22;29783;52.504;13.478;2023-05-10T07:32:09;16.10;52.20
44121;DHT22;29783;52.504;13.478;2023-05-10T07:34:35;16.20;52.00
44121;DHT22;29783;52.504;13.478;2023-05-10T07:37:01;16.40;51.70
44121;DHT22;29783;52.504;13.478;2023-05-10T07:39:27;16.50;51.30
44121;DHT22;29783;52.504;13.478;2023-05-10T07:41:54;16.60;51.10
44121;DHT22;29783;52.504;13.478;2023-05-10T08:19:05;17.50;48.90
44121;DHT22;29783;52.504;13.478;2023-05-10T08:21:30;17.50;48.70
44121;DHT22;29783;52.504;13.478;2023-05-10T08:23:56;17.50;48.70
44121;DHT22;29783;52.504;13.478;2023-05-10T08:26:23;17.60;48.10
44121;DHT22;29783;52.504;13.478;2023-05-10T08:28:48;17.70;48.00
44121;DHT22;29783;52.504;13.478;2023-05-10T08:31:14;17.70;49.50
44121;DHT22;29783;52.504;13.478;2023-05-10T08:33:40;17.80;47.30
44121;DHT22;29783;52.504;13.478;2023-05-10T08:36:06;17.70;47.80
44121;DHT22;29783;52.504;13.478;2023-05-10T08:38:32;17.70;47.60
44121;DHT22;29783;52.504;13.478;2023-05-10T08:40:58;17.80;47.50
44121;DHT22;29783;52.504;13.478;2023-05-10T08:43:27;18.10;47.60
44121;DHT22;29783;52.504;13.478;2023-05-10T08:45:54;18.10;46.90
44121;DHT22;29783;52.504;13.478;2023-05-10T08:48:23;18.20;48.20
44121;DHT22;29783;52.504;13.478;2023-05-10T08:50:53;18.30;46.90
44121;DHT22;29783;52.504;13.478;2023-05-10T08:53:20;18.30;46.50
44121;DHT22;29783;52.504;13.478;2023-05-10T08:55:46;18.40;46.30
44121;DHT22;29783;52.504;13.478;2023-05-10T08:58:12;18.30;46.40
44121;DHT22;29783;52.504;13.478;2023-05-10T09:00:38;18.40;46.30
44121;DHT22;29783;52.504;13.478;2023-05-10T09:03:04;18.50;45.70
44121;DHT22;29783;52.504;13.478;2023-05-10T09:05:30;18.50;46.10
44121;DHT22;29783;52.504;13.478;2023-05-10T09:07:56;18.60;45.60
44121;DHT22;29783;52.504;13.478;2023-05-10T09:10:22;18.70;45.30
44121;DHT22;29783;52.504;13.478;2023-05-10T09:12:51;18.70;44.90
44121;DHT22;29783;52.504;13.478;2023-05-10T09:15:17;18.80;46.10
44121;DHT22;29783;52.504;13.478;2023-05-10T09:17:44;18.90;44.60
44121;DHT22;29783;52.504;13.478;2023-05-10T09:20:10;18.90;44.50
44121;DHT22;29783;52.504;13.478;2023-05-10T09:22:36;18.80;44.60
44121;DHT22;29783;52.504;13.478;2023-05-10T09:25:09;18.90;45.00
44121;DHT22;29783;52.504;13.478;2023-05-10T09:27:45;19.20;45.20
44121;DHT22;29783;52.504;13.478;2023-05-10T09:30:25;19.30;44.60
44121;DHT22;29783;52.504;13.478;2023-05-10T09:32:51;19.50;44.00
44121;DHT22;29783;52.504;13.478;2023-05-10T09:35:19;19.50;44.20
44121;DHT22;29783;52.504;13.478;2023-05-10T09:37:50;19.40;43.40
44121;DHT22;29783;52.504;13.478;2023-05-10T09:40:18;19.20;43.80
44121;DHT22;29783;52.504;13.478;2023-05-10T09:45:25;19.70;43.60
44121;DHT22;29783;52.504;13.478;2023-05-10T09:47:51;19.70;43.60
44121;DHT22;29783;52.504;13.478;2023-05-10T09:50:17;19.90;43.60
44121;DHT22;29783;52.504;13.478;2023-05-10T09:58:03;20.20;42.60
44121;DHT22;29783;52.504;13.478;2023-05-10T10:00:43;20.10;41.50
44121;DHT22;29783;52.504;13.478;2023-05-10T10:03:13;20.10;42.00
44121;DHT22;29783;52.504;13.478;2023-05-10T10:05:40;20.20;42.30
44121;DHT22;29783;52.504;13.478;2023-05-10T10:08:08;20.30;41.70
44121;DHT22;29783;52.504;13.478;2023-05-10T10:10:33;20.30;42.00
44121;DHT22;29783;52.504;13.478;2023-05-10T10:12:59;20.30;41.60
44121;DHT22;29783;52.504;13.478;2023-05-10T10:15:25;20.10;42.00
44121;DHT22;29783;52.504;13.478;2023-05-10T10:17:52;20.20;42.60
44121;DHT22;29783;52.504;13.478;2023-05-10T10:20:20;20.30;42.70
44121;DHT22;29783;52.504;13.478;2023-05-10T10:22:46;20.70;42.50
44121;DHT22;29783;52.504;13.478;2023-05-10T10:25:14;20.90;42.30
44121;DHT22;29783;52.504;13.478;2023-05-10T10:33:30;21.30;41.90
44121;DHT22;29783;52.504;13.478;2023-05-10T10:36:00;21.30;40.40
44121;DHT22;29783;52.504;13.478;2023-05-10T10:38:36;21.30;40.60
44121;DHT22;29783;52.504;13.478;2023-05-10T10:41:09;21.40;40.40
44121;DHT22;29783;52.504;13.478;2023-05-10T10:43:35;21.20;40.00
44121;DHT22;29783;52.504;13.478;2023-05-10T10:46:14;21.20;39.50
44121;DHT22;29783;52.504;13.478;2023-05-10T10:48:41;21.20;40.10
44121;DHT22;29783;52.504;13.478;2023-05-10T10:51:13;21.30;40.00
44121;DHT22;29783;52.504;13.478;2023-05-10T10:53:40;21.40;40.50
44121;DHT22;29783;52.504;13.478;2023-05-10T10:56:11;21.50;40.20
44121;DHT22;29783;52.504;13.478;2023-05-10T10:58:38;21.70;40.40
44121;DHT22;29783;52.504;13.478;2023-05-10T11:01:18;21.90;40.80
44121;DHT22;29783;52.504;13.478;2023-05-10T11:06:35;22.10;38.70
44121;DHT22;29783;52.504;13.478;2023-05-10T11:09:11;21.90;38.80
44121;DHT22;29783;52.504;13.478;2023-05-10T11:11:53;21.70;38.40
44121;DHT22;29783;52.504;13.478;2023-05-10T11:14:23;21.60;39.10
44121;DHT22;29783;52.504;13.478;2023-05-10T11:16:49;21.90;39.30
44121;DHT22;29783;52.504;13.478;2023-05-10T11:19:16;22.00;39.80
44121;DHT22;29783;52.504;13.478;2023-05-10T11:21:50;22.20;39.50
44121;DHT22;29783;52.504;13.478;2023-05-10T11:24:22;22.20;39.60
44121;DHT22;29783;52.504;13.478;2023-05-10T11:26:51;22.20;39.50
44121;DHT22;29783;52.504;13.478;2023-05-10T11:29:17;22.50;38.20
44121;DHT22;29783;52.504;13.478;2023-05-10T11:31:43;22.40;38.10
44121;DHT22;29783;52.504;13.478;2023-05-10T11:34:10;22.20;38.20
44121;DHT22;29783;52.504;13.478;2023-05-10T11:36:36;22.20;38.60
44121;DHT22;29783;52.504;13.478;2023-05-10T11:39:03;22.30;38.50
44121;DHT22;29783;52.504;13.478;2023-05-10T11:41:30;22.40;38.80
44121;DHT22;29783;52.504;13.478;2023-05-10T11:43:57;22.70;38.60
44121;DHT22;29783;52.504;13.478;2023-05-10T11:46:25;22.90;38.90
44121;DHT22;29783;52.504;13.478;2023-05-10T11:48:53;23.10;38.30
44121;DHT22;29783;52.504;13.478;2023-05-10T11:51:24;23.10;36.60
44121;DHT22;29783;52.504;13.478;2023-05-10T11:53:52;23.00;36.70
44121;DHT22;29783;52.504;13.478;2023-05-10T11:56:18;23.20;36.60
44121;DHT22;29783;52.504;13.478;2023-05-10T11:58:43;23.20;36.30
44121;DHT22;29783;52.504;13.478;2023-05-10T12:01:09;23.30;36.00
44121;DHT22;29783;52.504;13.478;2023-05-10T12:03:36;23.10;37.00
44121;DHT22;29783;52.504;13.478;2023-05-10T12:06:03;23.20;37.10
44121;DHT22;29783;52.504;13.478;2023-05-10T12:08:29;23.70;35.00
44121;DHT22;29783;52.504;13.478;2023-05-10T12:11:09;24.50;33.70
44121;DHT22;29783;52.504;13.478;2023-05-10T12:13:40;25.60;32.40
44121;DHT22;29783;52.504;13.478;2023-05-10T12:16:16;26.40;30.70
44121;DHT22;29783;52.504;13.478;2023-05-10T12:18:42;26.50;30.00
44121;DHT22;29783;52.504;13.478;2023-05-10T12:21:10;26.70;30.00
44121;DHT22;29783;52.504;13.478;2023-05-10T12:23:36;27.80;28.30
44121;DHT22;29783;52.504;13.478;2023-05-10T12:26:03;29.10;28.00
44121;DHT22;29783;52.504;13.478;2023-05-10T12:28:33;30.10;25.60
44121;DHT22;29783;52.504;13.478;2023-05-10T12:31:02;29.80;25.80
44121;DHT22;29783;52.504;13.478;2023-05-10T12:33:36;28.90;26.70
44121;DHT22;29783;52.504;13.478;2023-05-10T12:36:04;29.00;27.00
44121;DHT22;29783;52.504;13.478;2023-05-10T12:38:35;29.40;26.90
44121;DHT22;29783;52.504;13.478;2023-05-10T12:41:05;30.80;25.70
44121;DHT22;29783;52.504;13.478;2023-05-10T12:43:32;31.40;24.10
44121;DHT22;29783;52.504;13.478;2023-05-10T12:45:58;31.10;24.50
44121;DHT22;29783;52.504;13.478;2023-05-10T12:48:24;31.20;24.10
44121;DHT22;29783;52.504;13.478;2023-05-10T12:50:49;31.20;24.40
44121;DHT22;29783;52.504;13.478;2023-05-10T12:53:16;32.10;23.30
44121;DHT22;29783;52.504;13.478;2023-05-10T12:55:42;31.80;23.20
44121;DHT22;29783;52.504;13.478;2023-05-10T12:58:08;32.80;22.70
44121;DHT22;29783;52.504;13.478;2023-05-10T13:00:34;32.40;23.20
44121;DHT22;29783;52.504;13.478;2023-05-10T13:02:59;32.20;23.80
44121;DHT22;29783;52.504;13.478;2023-05-10T13:05:25;32.50;23.60
44121;DHT22;29783;52.504;13.478;2023-05-10T13:07:51;32.10;24.10
44121;DHT22;29783;52.504;13.478;2023-05-10T13:10:17;32.40;24.20
44121;DHT22;29783;52.504;13.478;2023-05-10T13:12:42;33.20;22.90
44121;DHT22;29783;52.504;13.478;2023-05-10T13:15:08;31.90;22.90
44121;DHT22;29783;52.504;13.478;2023-05-10T13:17:34;32.10;23.10
44121;DHT22;29783;52.504;13.478;2023-05-10T13:20:00;33.20;22.10
44121;DHT22;29783;52.504;13.478;2023-05-10T13:22:27;32.20;22.60
44121;DHT22;29783;52.504;13.478;2023-05-10T13:24:53;32.10;23.40
44121;DHT22;29783;52.504;13.478;2023-05-10T13:27:20;32.70;23.20
44121;DHT22;29783;52.504;13.478;2023-05-10T13:29:45;32.20;23.00
44121;DHT22;29783;52.504;13.478;2023-05-10T13:32:11;32.10;23.20
44121;DHT22;29783;52.504;13.478;2023-05-10T13:34:36;32.20;23.20
44121;DHT22;29783;52.504;13.478;2023-05-10T13:37:02;32.10;23.00
44121;DHT22;29783;52.504;13.478;2023-05-10T13:39:29;31.60;23.20
44121;DHT22;29783;52.504;13.478;2023-05-10T13:41:58;31.20;23.10
44121;DHT22;29783;52.504;13.478;2023-05-10T13:44:24;31.00;24.00
44121;DHT22;29783;52.504;13.478;2023-05-10T13:46:50;31.60;23.10
44121;DHT22;29783;52.504;13.478;2023-05-10T13:49:16;32.50;22.60
44121;DHT22;29783;52.504;13.478;2023-05-10T13:51:42;33.10;22.60
44121;DHT22;29783;52.504;13.478;2023-05-10T13:54:08;33.50;21.80
44121;DHT22;29783;52.504;13.478;2023-05-10T13:56:34;33.00;22.40
44121;DHT22;29783;52.504;13.478;2023-05-10T13:59:00;33.60;22.30
44121;DHT22;29783;52.504;13.478;2023-05-10T14:01:26;33.40;21.80
44121;DHT22;29783;52.504;13.478;2023-05-10T14:03:51;33.60;22.30
44121;DHT22;29783;52.504;13.478;2023-05-10T14:06:17;33.70;21.80
44121;DHT22;29783;52.504;13.478;2023-05-10T14:08:43;34.10;21.50
44121;DHT22;29783;52.504;13.478;2023-05-10T14:11:09;34.40;20.30
44121;DHT22;29783;52.504;13.478;2023-05-10T14:13:34;33.70;21.00
44121;DHT22;29783;52.504;13.478;2023-05-10T14:16:00;32.60;22.20
44121;DHT22;29783;52.504;13.478;2023-05-10T14:18:26;32.70;22.40
44121;DHT22;29783;52.504;13.478;2023-05-10T14:20:52;33.00;22.30
44121;DHT22;29783;52.504;13.478;2023-05-10T14:23:23;33.10;21.80
44121;DHT22;29783;52.504;13.478;2023-05-10T14:25:53;32.90;22.00
44121;DHT22;29783;52.504;13.478;2023-05-10T14:28:19;33.10;21.90
44121;DHT22;29783;52.504;13.478;2023-05-10T14:30:46;33.20;21.80
44121;DHT22;29783;52.504;13.478;2023-05-10T14:33:11;33.70;20.60
44121;DHT22;29783;52.504;13.478;2023-05-10T14:35:38;33.70;19.80
44121;DHT22;29783;52.504;13.478;2023-05-10T14:38:03;32.90;20.60
44121;DHT22;29783;52.504;13.478;2023-05-10T14:40:30;33.40;20.30
44121;DHT22;29783;52.504;13.478;2023-05-10T14:42:55;33.60;20.10
44121;DHT22;29783;52.504;13.478;2023-05-10T14:45:22;34.00;20.30
44121;DHT22;29783;52.504;13.478;2023-05-10T14:47:48;34.90;20.00
44121;DHT22;29783;52.504;13.478;2023-05-10T14:50:14;34.20;20.30
44121;DHT22;29783;52.504;13.478;2023-05-10T14:52:40;33.80;21.20
44121;DHT22;29783;52.504;13.478;2023-05-10T14:55:06;33.70;21.10
44121;DHT22;29783;52.504;13.478;2023-05-10T14:57:32;35.00;19.90
44121;DHT22;29783;52.504;13.478;2023-05-10T14:59:58;35.20;19.50
44121;DHT22;29783;52.504;13.478;2023-05-10T15:02:27;35.80;19.10
44121;DHT22;29783;52.504;13.478;2023-05-10T15:04:53;34.80;19.70
44121;DHT22;29783;52.504;13.478;2023-05-10T15:07:18;34.30;20.20
44121;DHT22;29783;52.504;13.478;2023-05-10T15:09:44;34.30;20.80
44121;DHT22;29783;52.504;13.478;2023-05-10T15:12:10;34.30;20.00
44121;DHT22;29783;52.504;13.478;2023-05-10T15:14:36;34.10;20.00
44121;DHT22;29783;52.504;13.478;2023-05-10T15:17:02;33.10;20.90
44121;DHT22;29783;52.504;13.478;2023-05-10T15:19:29;32.90;20.60
44121;DHT22;29783;52.504;13.478;2023-05-10T15:21:55;33.40;20.50
44121;DHT22;29783;52.504;13.478;2023-05-10T15:24:21;33.50;20.30
44121;DHT22;29783;52.504;13.478;2023-05-10T15:26:47;33.60;20.60
44121;DHT22;29783;52.504;13.478;2023-05-10T15:29:13;31.90;22.00
44121;DHT22;29783;52.504;13.478;2023-05-10T15:31:48;31.60;22.70
44121;DHT22;29783;52.504;13.478;2023-05-10T15:34:14;30.90;23.40
44121;DHT22;29783;52.504;13.478;2023-05-10T15:36:40;29.70;25.00
44121;DHT22;29783;52.504;13.478;2023-05-10T15:39:05;29.00;26.20
44121;DHT22;29783;52.504;13.478;2023-05-10T15:41:31;28.70;26.30
44121;DHT22;29783;52.504;13.478;2023-05-10T15:43:57;29.10;26.00
44121;DHT22;29783;52.504;13.478;2023-05-10T15:46:25;29.90;25.40
44121;DHT22;29783;52.504;13.478;2023-05-10T15:48:51;30.40;24.70
44121;DHT22;29783;52.504;13.478;2023-05-10T15:51:17;30.80;24.20
44121;DHT22;29783;52.504;13.478;2023-05-10T15:53:44;30.30;24.50
44121;DHT22;29783;52.504;13.478;2023-05-10T15:56:09;30.90;23.90
44121;DHT22;29783;52.504;13.478;2023-05-10T15:58:36;31.70;23.50
44121;DHT22;29783;52.504;13.478;2023-05-10T16:01:03;32.50;23.00
44121;DHT22;29783;52.504;13.478;2023-05-10T16:03:30;33.30;22.20
44121;DHT22;29783;52.504;13.478;2023-05-10T16:05:56;32.70;23.00
44121;DHT22;29783;52.504;13.478;2023-05-10T16:08:21;33.10;22.60
44121;DHT22;29783;52.504;13.478;2023-05-10T16:10:47;33.60;22.40
44121;DHT22;29783;52.504;13.478;2023-05-10T16:13:13;33.10;22.90
44121;DHT22;29783;52.504;13.478;2023-05-10T16:15:40;32.90;22.90
44121;DHT22;29783;52.504;13.478;2023-05-10T16:18:06;32.80;22.80
44121;DHT22;29783;52.504;13.478;2023-05-10T16:20:32;32.30;23.60
44121;DHT22;29783;52.504;13.478;2023-05-10T16:23:04;31.70;24.10
44121;DHT22;29783;52.504;13.478;2023-05-10T16:25:31;32.30;23.70
44121;DHT22;29783;52.504;13.478;2023-05-10T16:27:57;32.00;23.70
44121;DHT22;29783;52.504;13.478;2023-05-10T16:30:22;30.20;25.70
44121;DHT22;29783;52.504;13.478;2023-05-10T16:32:54;29.60;26.20
44121;DHT22;29783;52.504;13.478;2023-05-10T16:35:19;30.00;25.80
44121;DHT22;29783;52.504;13.478;2023-05-10T16:37:45;30.20;25.50
44121;DHT22;29783;52.504;13.478;2023-05-10T16:40:11;29.70;26.10
44121;DHT22;29783;52.504;13.478;2023-05-10T16:42:37;30.10;26.20
44121;DHT22;29783;52.504;13.478;2023-05-10T16:45:02;30.60;25.40
44121;DHT22;29783;52.504;13.478;2023-05-10T16:47:35;29.90;28.00
44121;DHT22;29783;52.504;13.478;2023-05-10T16:50:03;30.00;31.30
44121;DHT22;29783;52.504;13.478;2023-05-10T16:52:29;30.10;31.40
44121;DHT22;29783;52.504;13.478;2023-05-10T16:54:54;29.30;32.20
44121;DHT22;29783;52.504;13.478;2023-05-10T16:57:20;28.50;33.60
44121;DHT22;29783;52.504;13.478;2023-05-10T16:59:46;27.30;36.00
44121;DHT22;29783;52.504;13.478;2023-05-10T17:02:13;27.40;37.10
44121;DHT22;29783;52.504;13.478;2023-05-10T17:04:39;27.60;36.90
44121;DHT22;29783;52.504;13.478;2023-05-10T17:07:04;27.60;37.70
44121;DHT22;29783;52.504;13.478;2023-05-10T17:09:30;27.50;38.10
44121;DHT22;29783;52.504;13.478;2023-05-10T17:11:56;27.60;38.40
44121;DHT22;29783;52.504;13.478;2023-05-10T17:14:21;27.10;39.80
44121;DHT22;29783;52.504;13.478;2023-05-10T17:16:47;26.20;41.70
44121;DHT22;29783;52.504;13.478;2023-05-10T17:19:13;25.70;43.20
44121;DHT22;29783;52.504;13.478;2023-05-10T17:21:39;25.40;43.80
44121;DHT22;29783;52.504;13.478;2023-05-10T17:24:05;24.90;45.20
44121;DHT22;29783;52.504;13.478;2023-05-10T17:26:30;24.30;46.70
44121;DHT22;29783;52.504;13.478;2023-05-10T17:28:57;23.70;48.00
44121;DHT22;29783;52.504;13.478;2023-05-10T17:31:22;23.30;49.10
44121;DHT22;29783;52.504;13.478;2023-05-10T17:33:48;22.90;50.10
44121;DHT22;29783;52.504;13.478;2023-05-10T17:36:13;22.60;50.90
44121;DHT22;29783;52.504;13.478;2023-05-10T17:38:39;22.50;51.50
44121;DHT22;29783;52.504;13.478;2023-05-10T17:41:05;22.20;52.30
44121;DHT22;29783;52.504;13.478;2023-05-10T17:43:30;22.00;52.80
44121;DHT22;29783;52.504;13.478;2023-05-10T17:45:56;22.00;53.30
44121;DHT22;29783;52.504;13.478;2023-05-10T17:48:22;21.80;54.00
44121;DHT22;29783;52.504;13.478;2023-05-10T17:50:50;21.70;54.30
44121;DHT22;29783;52.504;13.478;2023-05-10T17:53:16;21.60;54.70